Etusivu
METAR-TAF:

METAR-TAF

Lentoasemat :

Chetwynd, Brittiläinen Kolumbia, Kanada

Leveyspiiri: 55-42N, Pituuspiiri: 121-38W, korkeus merenpinnasta: 609 m

Tämänhetkinen sää

Tämä raportti tehtiin 33 minuuttia sitten, kello 15.00 UTC
Tuuli 12 kn lounaasta puuskistuen 18 kn:hen
Lämpötila 11°C
Kosteus 50%
Ilmanpaine 1014 hPa
Näkyvyys: 56.3 km
Muutamia pilviä 4500 ft:n korkeudessa
Hajanaisia pilviä 8800 ft:n korkeudessa
Hajanaisia pilviä 22000 ft:n korkeudessa

METAR: CYCQ 031500Z 22012G18KT 35SM FEW045 SCT088 SCT220 11/01 A2993 RMK CU1AC3CI1 CU TR SLP152

Aika: 08:33 (15:33 UTC)


TAF: puuttuu

Säähavainnot ja -ennusteet yli 4000 lentoasemalta (METAR- ja TAF-raportit).

Käytössä olevat sääasemat on merkitty karttaan keltaisilla ja punaisilla pisteillä.

Aseta hiiri pisteen päälle nähdäksesi sääaseman nimen.

Klikkaa sitten nähdäksesi säähavainnot ja -ennusteet.

Kartan vaihtaminen: klikkaa mustalla rastilla varustettuja vihreitä pisteitä, niin voit zoomata sisään; viivalla varustettua vihreää pistettä, niin voit zoomata ulos tai vihreitä nuolia, niin pääset viereisille kartoille.


METAR-TAF: